BEARDSLEY LAKE (BRD)

Elevation: 3398' · STANISLAUS R basin · Operator: Oakdale South San Joaquin Irrigation District


Station comments:

04/14/2015Reservoir capacity updated from 77,600 to 97,800 from information found at http://ce-npdp-serv2.stanford.edu/DamDirectory/DamDetail.jsp?npdp_id=CA00263


Provisional data, subject to change.
Query executed Saturday at 13:08:59   clock

Select a sensor type for a plot of data.
Note: Reservoir Flows are daily averages.

Earlier

Date STORAGE    RES CHG    OUTFLOW    PPT INC   
 AF   AF   CFS   INCHES  
07/02/2015 61451 -331 407 0.00
07/03/2015 61103 -348 363 0.00
07/04/2015 61019 -84 204 0.00
07/05/2015 60929 -90 203 0.00
07/06/2015 60827 -102 203 0.00
07/07/2015 60731 -96 199 0.00
07/08/2015 60660 -71 198 0.00
07/09/2015 60564 -96 201 0.08
07/10/2015 60486 -78 198 0.26
07/11/2015 60361 -125 199 0.00
07/12/2015 60325 -- 197 0.00
07/13/2015 60170 -155 204 0.00
07/14/2015 60051 -119 202 0.00
07/15/2015 59955 -96 202 0.00
07/16/2015 59854 -101 202 0.00
07/17/2015 59753 -101 202 0.00
07/18/2015 59800 47 201 0.00
07/19/2015 55611 -4189 224 0.00
07/20/2015 59854 4243 201 0.00
07/21/2015 59776 -78 201 0.00
07/22/2015 59687 -89 201 0.05
07/23/2015 59699 12 201 0.00
07/24/2015 60086 387 202 0.00
07/25/2015 60385 299 202 0.00
07/26/2015 60636 251 202 0.00
07/27/2015 60911 275 200 0.00
07/28/2015 61343 432 203 0.00
07/29/2015 61692 349 202 0.00
07/30/2015 62209 517 202 0.00
07/31/2015 62681 472 204 0.00
08/01/2015 -- -- -- --

Later | Latest

Warning! This data is preliminary and subject to revision.

Show BRD Map | Plot BRD Data | 1 Month BRD Data | Real-Time BRD Data | BRD Info